createdAt,value
2022-11-23T00:04:13.005Z,992.83
2022-11-23T00:10:35.982Z,992.81
2022-11-23T00:16:56.101Z,992.83
2022-11-23T00:23:18.976Z,992.89
2022-11-23T00:29:38.979Z,992.93
2022-11-23T00:36:02.010Z,992.97
2022-11-23T00:42:21.993Z,993.01
2022-11-23T00:48:44.995Z,993.06
2022-11-23T00:55:05.007Z,993.08
2022-11-23T01:01:28.051Z,993.12
2022-11-23T01:07:48.072Z,993.14
2022-11-23T01:14:11.106Z,993.18
2022-11-23T01:20:30.972Z,993.24
2022-11-23T01:26:54.011Z,993.28
2022-11-23T01:33:13.996Z,993.32
2022-11-23T01:39:36.983Z,993.36
2022-11-23T01:45:56.989Z,993.4
2022-11-23T01:52:20.036Z,993.42
2022-11-23T01:58:40.017Z,993.44
2022-11-23T02:05:02.975Z,993.44
2022-11-23T02:11:23.032Z,993.48
2022-11-23T02:17:45.975Z,993.51
2022-11-23T02:24:05.984Z,993.55
2022-11-23T02:30:28.989Z,993.57
2022-11-23T02:36:49.004Z,993.59
2022-11-23T02:43:11.997Z,993.59
2022-11-23T02:49:32.244Z,993.55
2022-11-23T02:55:54.975Z,993.57
2022-11-23T03:02:15.084Z,993.59
2022-11-23T03:08:38.028Z,993.57
2022-11-23T03:14:57.981Z,993.59
2022-11-23T03:21:20.984Z,993.59
2022-11-23T03:27:41.005Z,993.59
2022-11-23T03:34:03.992Z,993.57
2022-11-23T03:40:23.969Z,993.57
2022-11-23T03:46:47.058Z,993.59
2022-11-23T03:53:06.976Z,993.65
2022-11-23T03:59:30.376Z,993.69
2022-11-23T04:05:49.983Z,993.71
2022-11-23T04:12:12.983Z,993.71
2022-11-23T04:18:32.971Z,993.71
2022-11-23T04:24:56.027Z,993.71
2022-11-23T04:48:19.511Z,993.75
2022-11-23T04:54:38.984Z,993.79
2022-11-23T05:01:02.024Z,993.83
2022-11-23T05:07:22.026Z,993.83
2022-11-23T05:13:44.985Z,993.83
2022-11-23T05:20:05.009Z,993.83
2022-11-23T05:26:28.012Z,993.89
2022-11-23T05:32:48.020Z,993.96
2022-11-23T05:39:10.975Z,994.04
2022-11-23T05:45:31.012Z,994.08
2022-11-23T05:51:54.011Z,994.08
2022-11-23T05:58:13.972Z,994.12
2022-11-23T06:04:37.030Z,994.1
2022-11-23T06:10:56.968Z,994.1
2022-11-23T06:17:19.974Z,994.08
2022-11-23T06:23:40.000Z,994.12
2022-11-23T06:30:02.972Z,994.12
2022-11-23T06:36:23.012Z,994.16
2022-11-23T06:42:45.991Z,994.18
2022-11-23T06:49:06.000Z,994.18
2022-11-23T06:55:28.989Z,994.22
2022-11-23T07:01:49.043Z,994.26
2022-11-23T07:08:11.990Z,994.3
2022-11-23T07:14:32.088Z,994.34
2022-11-23T07:20:55.039Z,994.43
2022-11-23T07:27:14.977Z,994.43
2022-11-23T07:33:37.991Z,994.45
2022-11-23T07:39:58.588Z,994.51
2022-11-23T07:46:20.993Z,994.57
2022-11-23T07:52:40.989Z,994.59
2022-11-23T07:59:04.025Z,994.61
2022-11-23T08:05:23.972Z,994.71
2022-11-23T08:11:47.009Z,994.77
2022-11-23T08:18:06.986Z,994.83
2022-11-23T08:24:30.519Z,994.85
2022-11-23T08:30:50.009Z,994.89
2022-11-23T08:37:13.038Z,994.87
2022-11-23T08:43:32.983Z,994.85
2022-11-23T08:49:55.971Z,994.85
2022-11-23T08:56:16.016Z,994.85
2022-11-23T09:02:39.004Z,994.85
2022-11-23T09:08:58.965Z,994.89
2022-11-23T09:15:22.026Z,994.9
2022-11-23T09:21:41.977Z,994.9
2022-11-23T09:28:05.003Z,994.89
2022-11-23T09:34:25.010Z,994.89
2022-11-23T09:40:47.977Z,994.92
2022-11-23T09:47:08.008Z,994.94
2022-11-23T09:53:31.014Z,994.98
2022-11-23T10:15:58.003Z,994.89
2022-11-23T10:22:20.997Z,994.89
2022-11-23T10:28:40.996Z,994.85
2022-11-23T10:35:04.004Z,994.81
2022-11-23T10:41:23.999Z,994.77
2022-11-23T10:47:46.982Z,994.69
2022-11-23T10:54:07.015Z,994.57
2022-11-23T11:00:31.050Z,994.47
2022-11-23T11:06:49.989Z,994.42
2022-11-23T11:13:13.054Z,994.24
2022-11-23T11:19:32.999Z,994.12
2022-11-23T11:25:56.007Z,994.08
2022-11-23T11:32:16.016Z,994.04
2022-11-23T11:38:38.986Z,993.98
2022-11-23T11:44:59.002Z,993.95
2022-11-23T11:51:22.048Z,993.91
2022-11-23T11:57:41.988Z,993.87
2022-11-23T12:04:04.986Z,993.85
2022-11-23T12:10:24.990Z,993.85
2022-11-23T12:16:59.439Z,993.81
2022-11-23T12:23:08.008Z,993.83
2022-11-23T12:29:31.303Z,993.77
2022-11-23T12:35:50.995Z,993.75
2022-11-23T12:42:14.216Z,993.67
2022-11-23T12:48:34.269Z,993.59
2022-11-23T12:54:56.987Z,993.53
2022-11-23T13:01:18.208Z,993.46
2022-11-23T13:07:46.209Z,993.34
2022-11-23T13:14:00.987Z,993.22
2022-11-23T13:20:24.105Z,993.08
2022-11-23T13:26:44.034Z,992.95
2022-11-23T13:33:07.006Z,992.87
2022-11-23T13:39:27.040Z,992.89
2022-11-23T13:45:50.065Z,992.91
2022-11-23T13:52:09.996Z,992.85
2022-11-23T13:58:32.978Z,992.83
2022-11-23T14:04:53.014Z,992.79
2022-11-23T14:11:15.995Z,992.75
2022-11-23T14:17:35.987Z,992.77
2022-11-23T14:23:59.013Z,992.73
2022-11-23T14:30:18.980Z,992.73
2022-11-23T14:36:42.003Z,992.73
2022-11-23T14:43:02.013Z,992.73
2022-11-23T14:49:24.976Z,992.69
2022-11-23T14:55:45.018Z,992.69
2022-11-23T15:02:08.025Z,992.75
2022-11-23T15:08:27.985Z,992.89
2022-11-23T15:14:51.015Z,992.99
2022-11-23T15:21:11.013Z,992.99
2022-11-23T15:38:16.697Z,993.14
2022-11-23T15:44:33.979Z,993.22
2022-11-23T15:50:56.994Z,993.36
2022-11-23T15:57:17.014Z,993.59
2022-11-23T16:03:39.983Z,993.75
2022-11-23T16:10:00.432Z,993.98
2022-11-23T16:16:23.311Z,994.16
2022-11-23T16:22:42.997Z,994.26
2022-11-23T16:29:06.003Z,994.34
2022-11-23T16:35:26.033Z,994.43
2022-11-23T16:41:49.075Z,994.57
2022-11-23T16:48:09.056Z,994.63
2022-11-23T16:54:32.108Z,994.79
2022-11-23T17:00:52.158Z,994.92
2022-11-23T17:07:15.089Z,995.04
2022-11-23T17:13:35.022Z,995.12
2022-11-23T17:20:04.060Z,995.26
2022-11-23T17:26:20.009Z,995.26
2022-11-23T17:32:43.004Z,995.38
2022-11-23T17:39:03.018Z,995.46
2022-11-23T17:45:25.989Z,995.54
2022-11-23T17:51:46.051Z,995.59
2022-11-23T17:58:09.014Z,995.69
2022-11-23T18:04:28.978Z,995.77
2022-11-23T18:10:56.310Z,995.81
2022-11-23T18:17:12.000Z,995.87
2022-11-23T18:23:34.975Z,995.95
2022-11-23T18:29:55.324Z,996.03
2022-11-23T18:36:18.014Z,996.1
2022-11-23T18:42:38.034Z,996.22
2022-11-23T18:49:01.203Z,996.32
2022-11-23T18:55:20.985Z,996.42
2022-11-23T19:01:44.034Z,996.52
2022-11-23T19:08:04.244Z,996.61
2022-11-23T19:14:27.010Z,996.69
2022-11-23T19:20:46.985Z,996.79
2022-11-23T19:27:10.071Z,996.89
2022-11-23T19:33:29.993Z,996.99
2022-11-23T19:39:52.971Z,997.06
2022-11-23T19:46:13.041Z,997.1
2022-11-23T19:52:55.821Z,997.16
2022-11-23T19:58:56.277Z,997.2
2022-11-23T20:05:19.103Z,997.32
2022-11-23T20:11:39.039Z,997.42
2022-11-23T20:18:02.002Z,997.51
2022-11-23T20:24:22.032Z,997.59
2022-11-23T20:46:32.030Z,997.87
2022-11-23T20:52:40.000Z,997.91
2022-11-23T20:59:00.026Z,998.03
2022-11-23T21:05:23.042Z,998.07
2022-11-23T21:11:43.067Z,998.15
2022-11-23T21:18:06.541Z,998.21
2022-11-23T21:24:27.051Z,998.28
2022-11-23T21:30:50.013Z,998.36
2022-11-23T21:37:09.980Z,998.46
2022-11-23T21:43:33.061Z,998.6
2022-11-23T21:49:52.989Z,998.68
2022-11-23T21:56:16.008Z,998.7
2022-11-23T22:02:36.117Z,998.73
2022-11-23T22:08:59.005Z,998.81
2022-11-23T22:15:18.981Z,998.91
2022-11-23T22:21:42.024Z,998.99
2022-11-23T22:28:01.974Z,999.07
2022-11-23T22:34:24.986Z,999.2
2022-11-23T22:40:45.018Z,999.26
2022-11-23T22:47:07.990Z,999.36
2022-11-23T22:53:27.992Z,999.48
2022-11-23T22:59:51.000Z,999.56
2022-11-23T23:22:47.997Z,999.77
2022-11-23T23:29:07.996Z,999.79
2022-11-23T23:35:31.008Z,999.89
2022-11-23T23:41:51.015Z,999.99
2022-11-23T23:48:13.992Z,1000.01
2022-11-23T23:54:34.272Z,1000.07
